Time;durP1;ratioP1;P1;durP2;ratioP2;P2;SDS_P1;SDS_P2;PMS_P1;PMS_P2;Temp;Humidity;BMP_temperature;BMP_pressure;BME280_temperature;BME280_humidity;BME280_pressure;Samples;Min_cycle;Max_cycle;Signal;HPM_P1;HPM_P2
2023/03/13 00:01:15;;;;;;;12.05;2.45;;;;;;;;;;5078508;27;99162;-78
2023/03/13 00:03:42;;;;;;;9.48;2.00;;;;;;;;;;5063164;27;101006;-77
2023/03/13 00:06:08;;;;;;;10.70;2.15;;;;;;;;;;5076453;27;98938;-78
2023/03/13 00:08:35;;;;;;;8.30;2.05;;;;;;;;;;5059230;27;97962;-78
2023/03/13 00:11:06;;;;;;;10.38;2.40;;;;;;;;;;5041458;27;100672;-79
2023/03/13 00:13:32;;;;;;;9.50;2.08;;;;;;;;;;5062819;27;99466;-78
2023/03/13 00:16:03;;;;;;;7.32;1.98;;;;;;;;;;5074157;27;99354;-79
2023/03/13 00:18:30;;;;;;;8.23;1.90;;;;;;;;;;5076940;27;99511;-80
2023/03/13 00:20:57;;;;;;;11.27;2.25;;;;;;;;;;5078235;27;99241;-78
2023/03/13 00:23:23;;;;;;;12.68;2.75;;;;;;;;;;5078690;27;98251;-77
2023/03/13 00:25:57;;;;;;;15.05;2.38;;;;;;;;;;5063498;27;98899;-77
2023/03/13 00:28:23;;;;;;;;;;;;;;;;;;5043893;27;98829;-76
2023/03/13 00:30:50;;;;;;;10.20;2.35;;;;;;;;;;5062444;27;99217;-78
2023/03/13 00:33:16;;;;;;;10.43;2.53;;;;;;;;;;5060333;27;98120;-78
2023/03/13 00:35:43;;;;;;;8.93;2.42;;;;;;;;;;5059810;27;98808;-78
2023/03/13 00:38:09;;;;;;;12.43;2.90;;;;;;;;;;5076250;27;99270;-78
2023/03/13 00:40:37;;;;;;;12.20;2.75;;;;;;;;;;5076755;27;99558;-76
2023/03/13 00:43:03;;;;;;;11.45;3.10;;;;;;;;;;5058549;27;98579;-77
2023/03/13 00:45:30;;;;;;;12.98;2.78;;;;;;;;;;5078669;27;98612;-77
2023/03/13 00:47:57;;;;;;;15.05;3.55;;;;;;;;;;5045991;27;101071;-78
2023/03/13 00:50:23;;;;;;;13.57;3.53;;;;;;;;;;5042843;27;100821;-77
2023/03/13 00:52:50;;;;;;;14.23;3.30;;;;;;;;;;5077264;27;98870;-77
2023/03/13 00:55:16;;;;;;;12.38;3.33;;;;;;;;;;5065300;27;98176;-77
2023/03/13 00:57:42;;;;;;;13.15;3.10;;;;;;;;;;5079168;27;98714;-78
2023/03/13 01:00:09;;;;;;;13.15;2.95;;;;;;;;;;5059468;27;99337;-78
2023/03/13 01:02:40;;;;;;;10.68;3.25;;;;;;;;;;5077286;27;98651;-77
2023/03/13 01:05:07;;;;;;;9.98;3.15;;;;;;;;;;5042105;27;100440;-77
2023/03/13 01:07:33;;;;;;;14.60;2.83;;;;;;;;;;5080545;27;98533;-79
2023/03/13 01:10:00;;;;;;;15.60;3.47;;;;;;;;;;5042731;27;101081;-79
2023/03/13 01:12:26;;;;;;;14.80;2.83;;;;;;;;;;5059279;27;99323;-79
2023/03/13 01:14:53;;;;;;;11.82;3.08;;;;;;;;;;5080504;27;98571;-79
2023/03/13 01:17:20;;;;;;;13.02;3.40;;;;;;;;;;5066683;27;98923;-79
2023/03/13 01:19:48;;;;;;;12.60;3.38;;;;;;;;;;5058898;27;99290;-79
2023/03/13 01:22:15;;;;;;;11.80;2.80;;;;;;;;;;5059324;27;97827;-78
2023/03/13 01:24:41;;;;;;;13.32;3.10;;;;;;;;;;5058369;27;100593;-78
2023/03/13 01:27:08;;;;;;;13.75;3.25;;;;;;;;;;5059339;27;99057;-78
2023/03/13 01:29:34;;;;;;;10.63;2.55;;;;;;;;;;5080710;27;98972;-80
2023/03/13 01:32:00;;;;;;;12.07;2.60;;;;;;;;;;5058868;27;100659;-79
2023/03/13 01:34:27;;;;;;;13.27;2.85;;;;;;;;;;5077743;27;98660;-78
2023/03/13 01:36:53;;;;;;;14.10;2.88;;;;;;;;;;5076815;27;98803;-80
2023/03/13 01:39:20;;;;;;;10.95;2.70;;;;;;;;;;5059216;27;98731;-77
2023/03/13 01:41:46;;;;;;;9.25;2.63;;;;;;;;;;5034397;27;98441;-78
2023/03/13 01:44:19;;;;;;;9.23;2.30;;;;;;;;;;5053084;27;101141;-79
2023/03/13 01:46:45;;;;;;;11.77;2.53;;;;;;;;;;5055511;27;100094;-78
2023/03/13 01:49:28;;;;;;;9.77;2.38;;;;;;;;;;5053336;27;98819;-78
2023/03/13 01:52:25;;;;;;;9.88;2.30;;;;;;;;;;5058240;27;99851;-78
2023/03/13 01:55:06;;;;;;;;;;;;;;;;;;5054156;27;99624;-79
2023/03/13 01:57:34;;;;;;;8.85;2.47;;;;;;;;;;5057075;27;101121;-79
2023/03/13 02:00:03;;;;;;;8.50;2.30;;;;;;;;;;5055153;27;101024;-79
2023/03/13 02:02:40;;;;;;;10.55;2.40;;;;;;;;;;5054559;27;98692;-79
2023/03/13 02:05:07;;;;;;;8.38;2.20;;;;;;;;;;5055569;27;98846;-78
2023/03/13 02:07:38;;;;;;;9.60;2.50;;;;;;;;;;5054722;27;100684;-78
2023/03/13 02:10:06;;;;;;;7.55;2.13;;;;;;;;;;5055246;27;98560;-78
2023/03/13 02:12:34;;;;;;;7.65;2.40;;;;;;;;;;5054987;27;100315;-79
2023/03/13 02:15:08;;;;;;;10.07;2.10;;;;;;;;;;5062547;27;101711;-78
2023/03/13 02:17:35;;;;;;;7.55;2.08;;;;;;;;;;5060539;27;100985;-78
2023/03/13 02:20:03;;;;;;;8.00;2.47;;;;;;;;;;5055783;27;100035;-78
2023/03/13 02:22:29;;;;;;;6.15;1.95;;;;;;;;;;5054789;27;98237;-80
2023/03/13 02:25:09;;;;;;;7.63;2.30;;;;;;;;;;5055091;27;99102;-78
2023/03/13 02:27:36;;;;;;;;;;;;;;;;;;5055415;27;98935;-78
2023/03/13 02:30:04;;;;;;;8.18;2.05;;;;;;;;;;5040892;27;98296;-78
2023/03/13 02:32:31;;;;;;;;;;;;;;;;;;5037343;27;98926;-79
2023/03/13 02:35:01;;;;;;;6.38;2.22;;;;;;;;;;5038222;27;117412;-79
2023/03/13 02:37:28;;;;;;;6.68;2.10;;;;;;;;;;5038464;28;97629;-79
2023/03/13 02:39:57;;;;;;;5.80;2.13;;;;;;;;;;5051560;27;100651;-79
2023/03/13 02:42:24;;;;;;;7.57;2.50;;;;;;;;;;5054817;27;98268;-78
2023/03/13 02:44:51;;;;;;;8.95;2.58;;;;;;;;;;5068624;27;99722;-79
2023/03/13 02:47:18;;;;;;;6.85;2.20;;;;;;;;;;5058006;27;98807;-79
2023/03/13 02:49:45;;;;;;;;;;;;;;;;;;5058865;27;98122;-79
2023/03/13 02:52:14;;;;;;;7.15;2.20;;;;;;;;;;5059799;27;101197;-80
2023/03/13 02:54:44;;;;;;;8.02;2.55;;;;;;;;;;5056500;27;101760;-79
2023/03/13 02:57:10;;;;;;;7.55;2.88;;;;;;;;;;5058961;27;98876;-79
2023/03/13 02:59:38;;;;;;;8.02;2.88;;;;;;;;;;5043947;27;101112;-80
2023/03/13 03:02:04;;;;;;;5.82;2.70;;;;;;;;;;5058545;27;104897;-79
2023/03/13 03:04:31;;;;;;;7.63;2.67;;;;;;;;;;5057508;27;99974;-79
2023/03/13 03:06:57;;;;;;;7.88;2.47;;;;;;;;;;5079525;27;99662;-81
2023/03/13 03:09:24;;;;;;;10.38;4.00;;;;;;;;;;5044238;27;99051;-80
2023/03/13 03:11:55;;;;;;;9.90;3.45;;;;;;;;;;5045419;27;102523;-80
2023/03/13 03:14:21;;;;;;;6.97;3.20;;;;;;;;;;5060896;27;98768;-79
2023/03/13 03:16:48;;;;;;;10.20;3.40;;;;;;;;;;5067602;27;98346;-79
2023/03/13 03:19:14;;;;;;;9.65;3.35;;;;;;;;;;5064159;27;101141;-79
2023/03/13 03:21:41;;;;;;;8.07;3.20;;;;;;;;;;5061174;27;98138;-79
2023/03/13 03:24:07;;;;;;;9.57;4.28;;;;;;;;;;5079984;27;98555;-79
2023/03/13 03:26:35;;;;;;;8.35;4.05;;;;;;;;;;5060801;27;104765;-80
2023/03/13 03:29:09;;;;;;;10.00;3.90;;;;;;;;;;5060711;27;98735;-80
2023/03/13 03:31:36;;;;;;;8.13;3.47;;;;;;;;;;5060979;27;100612;-79
2023/03/13 03:34:03;;;;;;;9.60;4.53;;;;;;;;;;5078853;27;99876;-80
2023/03/13 03:36:29;;;;;;;9.52;3.42;;;;;;;;;;5079113;27;98307;-78
2023/03/13 03:38:56;;;;;;;7.72;3.95;;;;;;;;;;5034483;27;102639;-78
2023/03/13 03:41:25;;;;;;;10.88;4.47;;;;;;;;;;5080721;27;99712;-79
2023/03/13 03:43:52;;;;;;;9.05;3.72;;;;;;;;;;5060259;27;101152;-79
2023/03/13 03:46:23;;;;;;;8.32;3.78;;;;;;;;;;5043776;27;100955;-79
2023/03/13 03:48:50;;;;;;;9.23;3.38;;;;;;;;;;5060222;27;98913;-79
2023/03/13 03:51:16;;;;;;;8.80;4.72;;;;;;;;;;5079740;27;98434;-80
2023/03/13 03:53:45;;;;;;;9.52;4.22;;;;;;;;;;5060170;27;100782;-79
2023/03/13 03:56:11;;;;;;;8.40;4.03;;;;;;;;;;5052357;27;98671;-80
2023/03/13 03:58:44;;;;;;;9.02;4.60;;;;;;;;;;5062731;27;101368;-79
2023/03/13 04:01:29;;;;;;;8.77;3.92;;;;;;;;;;5078739;27;98559;-79
2023/03/13 04:03:55;;;;;;;10.60;4.18;;;;;;;;;;5047371;27;98857;-80
2023/03/13 04:06:22;;;;;;;7.95;3.22;;;;;;;;;;5060067;27;101691;-80
2023/03/13 04:08:48;;;;;;;8.38;3.60;;;;;;;;;;5059310;27;98899;-80
2023/03/13 04:11:19;;;;;;;9.80;3.63;;;;;;;;;;5059533;27;98828;-78
2023/03/13 04:13:48;;;;;;;6.72;3.00;;;;;;;;;;5059885;27;101481;-81
2023/03/13 04:16:15;;;;;;;8.40;3.70;;;;;;;;;;5065683;27;98175;-79
2023/03/13 04:18:43;;;;;;;8.80;3.72;;;;;;;;;;5041683;27;100867;-81
2023/03/13 04:21:10;;;;;;;7.97;3.10;;;;;;;;;;5058967;27;100548;-79
2023/03/13 04:23:41;;;;;;;11.60;3.30;;;;;;;;;;5059416;27;99023;-79
2023/03/13 04:26:08;;;;;;;8.80;3.90;;;;;;;;;;5045933;27;102118;-79
2023/03/13 04:28:36;;;;;;;7.32;3.30;;;;;;;;;;5059340;27;99049;-80
2023/03/13 04:31:05;;;;;;;7.50;3.50;;;;;;;;;;5043708;27;100828;-79
2023/03/13 04:33:50;;;;;;;7.45;3.10;;;;;;;;;;5062182;27;98690;-79
2023/03/13 04:36:36;;;;;;;8.43;3.70;;;;;;;;;;5031124;27;98940;-80
2023/03/13 04:39:16;;;;;;;;;;;;;;;;;;5045238;27;101183;-80
2023/03/13 04:41:55;;;;;;;8.65;3.30;;;;;;;;;;5053017;27;100528;-78
2023/03/13 04:44:33;;;;;;;6.45;2.80;;;;;;;;;;5059279;27;99245;-81
2023/03/13 04:47:11;;;;;;;9.32;3.97;;;;;;;;;;5044656;27;101243;-80
2023/03/13 04:49:53;;;;;;;9.93;3.33;;;;;;;;;;5062177;27;102389;-80
2023/03/13 04:52:38;;;;;;;8.15;3.05;;;;;;;;;;5058371;27;101968;-80
2023/03/13 04:55:31;;;;;;;8.43;3.80;;;;;;;;;;5075961;27;100335;-79
2023/03/13 04:58:26;;;;;;;9.40;3.38;;;;;;;;;;5001367;27;98600;-81
2023/03/13 05:01:12;;;;;;;9.13;3.78;;;;;;;;;;5058014;27;102503;-79
2023/03/13 05:04:01;;;;;;;8.95;3.28;;;;;;;;;;5059036;27;101138;-79
2023/03/13 05:06:48;;;;;;;7.32;3.17;;;;;;;;;;5076215;27;98377;-78
2023/03/13 05:09:28;;;;;;;9.10;3.13;;;;;;;;;;5045064;27;101674;-79
2023/03/13 05:12:15;;;;;;;7.07;2.78;;;;;;;;;;5047494;27;98798;-78
2023/03/13 05:14:53;;;;;;;8.77;3.20;;;;;;;;;;5064890;27;100065;-78
2023/03/13 05:17:31;;;;;;;7.13;2.78;;;;;;;;;;5029520;27;102186;-78
2023/03/13 05:20:16;;;;;;;8.50;3.00;;;;;;;;;;5061867;27;98122;-78
2023/03/13 05:22:51;;;;;;;9.02;3.10;;;;;;;;;;5042778;27;101248;-78
2023/03/13 05:25:34;;;;;;;8.15;3.40;;;;;;;;;;5058689;27;105683;-79
2023/03/13 05:28:30;;;;;;;7.72;2.60;;;;;;;;;;4986891;27;98591;-79
2023/03/13 05:31:14;;;;;;;8.93;2.90;;;;;;;;;;5038804;27;98958;-78
2023/03/13 05:33:47;;;;;;;7.85;2.88;;;;;;;;;;5056134;27;98795;-76
2023/03/13 05:36:38;;;;;;;7.97;2.88;;;;;;;;;;5058612;27;97680;-77
2023/03/13 05:39:25;;;;;;;8.52;2.67;;;;;;;;;;5076260;27;98987;-79
2023/03/13 05:42:08;;;;;;;7.28;2.25;;;;;;;;;;5058658;27;98387;-80
2023/03/13 05:44:41;;;;;;;11.20;2.85;;;;;;;;;;5057305;27;101068;-78
2023/03/13 05:47:25;;;;;;;8.73;2.95;;;;;;;;;;5059884;27;98708;-80
2023/03/13 05:50:05;;;;;;;8.10;2.70;;;;;;;;;;5065707;27;98370;-81
2023/03/13 05:52:58;;;;;;;11.10;2.85;;;;;;;;;;5058334;27;104467;-81
2023/03/13 05:55:45;;;;;;;8.75;2.60;;;;;;;;;;5058618;27;98682;-79
2023/03/13 05:58:31;;;;;;;8.50;2.85;;;;;;;;;;5061932;27;98410;-81
2023/03/13 06:01:11;;;;;;;10.10;3.00;;;;;;;;;;5061902;27;100944;-78
2023/03/13 06:03:50;;;;;;;8.73;2.60;;;;;;;;;;5058924;27;97480;-80
2023/03/13 06:06:18;;;;;;;9.15;2.78;;;;;;;;;;5041778;27;100557;-82
2023/03/13 06:08:50;;;;;;;9.40;2.95;;;;;;;;;;5057823;27;101735;-80
2023/03/13 06:11:17;;;;;;;6.38;2.30;;;;;;;;;;5057771;27;98958;-80
2023/03/13 06:13:44;;;;;;;8.50;2.80;;;;;;;;;;5041703;27;101241;-79
2023/03/13 06:16:20;;;;;;;8.43;2.58;;;;;;;;;;5061901;27;101343;-76
2023/03/13 06:18:48;;;;;;;7.47;2.33;;;;;;;;;;5057110;27;98332;-77
2023/03/13 06:21:14;;;;;;;10.05;2.25;;;;;;;;;;5076217;27;99591;-77
2023/03/13 06:23:41;;;;;;;7.85;2.40;;;;;;;;;;5061015;27;98831;-76
2023/03/13 06:26:07;;;;;;;6.70;2.30;;;;;;;;;;5058323;27;98731;-76
2023/03/13 06:28:33;;;;;;;7.05;2.10;;;;;;;;;;5057758;27;100101;-77
2023/03/13 06:31:04;;;;;;;6.53;2.05;;;;;;;;;;5080287;27;98332;-76
2023/03/13 06:33:31;;;;;;;6.00;2.10;;;;;;;;;;5077133;27;98586;-76
2023/03/13 06:35:59;;;;;;;6.18;1.90;;;;;;;;;;5056977;27;101977;-76
2023/03/13 06:38:26;;;;;;;7.85;2.10;;;;;;;;;;5076220;27;98174;-76
2023/03/13 06:40:53;;;;;;;5.63;1.80;;;;;;;;;;5074340;27;100505;-77
2023/03/13 06:43:19;;;;;;;5.80;2.00;;;;;;;;;;5075113;27;98666;-77
2023/03/13 06:45:46;;;;;;;6.28;1.80;;;;;;;;;;5079096;27;98370;-78
2023/03/13 06:48:12;;;;;;;5.47;1.80;;;;;;;;;;5075388;27;98897;-77
2023/03/13 06:50:39;;;;;;;6.05;1.90;;;;;;;;;;5038966;27;98670;-77
2023/03/13 06:53:06;;;;;;;5.13;1.70;;;;;;;;;;5076156;27;99755;-76
2023/03/13 06:55:32;;;;;;;5.68;2.05;;;;;;;;;;5082709;27;98559;-77
2023/03/13 06:57:59;;;;;;;4.50;1.65;;;;;;;;;;5076318;27;99091;-77
2023/03/13 07:00:25;;;;;;;5.30;1.65;;;;;;;;;;5046731;27;99762;-77
2023/03/13 07:02:52;;;;;;;6.18;2.00;;;;;;;;;;5074729;27;98679;-76
2023/03/13 07:05:19;;;;;;;4.78;1.80;;;;;;;;;;5039790;27;99223;-76
2023/03/13 07:07:46;;;;;;;5.57;1.83;;;;;;;;;;5043277;27;98877;-76
2023/03/13 07:10:12;;;;;;;6.25;1.80;;;;;;;;;;5075560;27;98705;-76
2023/03/13 07:12:43;;;;;;;4.28;1.70;;;;;;;;;;5073921;27;98505;-76
2023/03/13 07:15:09;;;;;;;5.57;1.85;;;;;;;;;;5078953;27;99231;-76
2023/03/13 07:17:36;;;;;;;6.50;2.00;;;;;;;;;;5057437;27;97812;-76
2023/03/13 07:20:09;;;;;;;5.38;1.90;;;;;;;;;;5056965;27;98290;-77
2023/03/13 07:22:36;;;;;;;5.75;1.88;;;;;;;;;;5056252;27;99712;-76
2023/03/13 07:25:03;;;;;;;5.63;1.80;;;;;;;;;;5074422;27;98868;-77
2023/03/13 07:27:30;;;;;;;4.82;1.67;;;;;;;;;;5066505;27;99702;-76
2023/03/13 07:29:56;;;;;;;4.82;1.83;;;;;;;;;;5075418;27;98127;-77
2023/03/13 07:32:23;;;;;;;4.90;1.80;;;;;;;;;;5059553;27;101004;-76
2023/03/13 07:34:49;;;;;;;5.43;1.77;;;;;;;;;;5038421;27;101694;-76
2023/03/13 07:37:16;;;;;;;4.45;1.70;;;;;;;;;;5056433;27;98983;-77
2023/03/13 07:39:43;;;;;;;6.13;1.70;;;;;;;;;;5056245;27;100975;-77
2023/03/13 07:42:10;;;;;;;6.28;1.80;;;;;;;;;;5074735;27;98106;-77
2023/03/13 07:44:39;;;;;;;5.00;2.00;;;;;;;;;;5055548;27;98275;-78
2023/03/13 07:47:06;;;;;;;5.97;1.83;;;;;;;;;;5056425;27;99449;-77
2023/03/13 07:49:38;;;;;;;4.30;1.83;;;;;;;;;;5042099;27;101923;-78
2023/03/13 07:52:04;;;;;;;5.53;1.70;;;;;;;;;;5075192;27;99243;-78
2023/03/13 07:54:30;;;;;;;6.10;1.73;;;;;;;;;;5077332;27;98834;-78
2023/03/13 07:56:57;;;;;;;4.57;1.80;;;;;;;;;;5042966;27;98626;-77
2023/03/13 07:59:23;;;;;;;6.00;1.73;;;;;;;;;;5042779;27;100056;-79
2023/03/13 08:01:50;;;;;;;8.00;2.08;;;;;;;;;;5059764;27;101763;-79
2023/03/13 08:04:16;;;;;;;5.78;1.90;;;;;;;;;;5059792;27;98193;-80
2023/03/13 08:06:43;;;;;;;4.88;1.60;;;;;;;;;;5059331;27;101132;-79
2023/03/13 08:09:09;;;;;;;5.35;1.45;;;;;;;;;;5041940;27;98984;-80
2023/03/13 08:11:37;;;;;;;5.55;1.50;;;;;;;;;;5081367;27;98263;-81
2023/03/13 08:14:04;;;;;;;;;;;;;;;;;;5044746;27;102049;-79
2023/03/13 08:16:32;;;;;;;5.18;1.52;;;;;;;;;;5081574;27;109177;-80
2023/03/13 08:19:00;;;;;;;5.05;1.40;;;;;;;;;;5055677;27;100543;-80
2023/03/13 08:21:27;;;;;;;3.47;1.58;;;;;;;;;;5041838;27;99441;-80
2023/03/13 08:23:55;;;;;;;10.45;1.95;;;;;;;;;;5078757;27;99903;-81
2023/03/13 08:26:22;;;;;;;4.95;1.30;;;;;;;;;;5077039;27;98552;-80
2023/03/13 08:28:53;;;;;;;4.97;1.30;;;;;;;;;;5058619;27;98736;-80
2023/03/13 08:31:21;;;;;;;8.68;1.58;;;;;;;;;;5059695;27;99272;-80
2023/03/13 08:33:48;;;;;;;6.53;1.50;;;;;;;;;;5062470;27;100068;-81
2023/03/13 08:36:16;;;;;;;4.75;1.35;;;;;;;;;;5058758;27;98531;-80
2023/03/13 08:38:43;;;;;;;5.40;1.45;;;;;;;;;;5076531;27;99057;-80
2023/03/13 08:41:12;;;;;;;5.20;1.30;;;;;;;;;;5059028;27;99153;-80
2023/03/13 08:43:39;;;;;;;4.22;1.38;;;;;;;;;;5058679;27;98891;-81
2023/03/13 08:46:05;;;;;;;3.40;1.40;;;;;;;;;;5059068;27;100147;-82
2023/03/13 08:48:32;;;;;;;3.00;1.40;;;;;;;;;;5059344;27;100750;-81
2023/03/13 08:50:59;;;;;;;4.13;1.30;;;;;;;;;;5058675;27;98585;-81
2023/03/13 08:53:26;;;;;;;4.00;1.48;;;;;;;;;;5059181;27;100877;-80
2023/03/13 08:55:53;;;;;;;5.20;1.50;;;;;;;;;;5062376;27;100398;-80
2023/03/13 08:58:19;;;;;;;;;;;;;;;;;;5060105;27;98325;-80
2023/03/13 09:00:46;;;;;;;5.15;1.40;;;;;;;;;;5076774;27;127239;-82
2023/03/13 09:03:12;;;;;;;3.70;1.20;;;;;;;;;;5076991;27;99132;-81
2023/03/13 09:05:39;;;;;;;4.57;1.40;;;;;;;;;;5073764;27;99628;-81
2023/03/13 09:08:21;;;;;;;3.75;1.45;;;;;;;;;;5052618;27;101168;-80
2023/03/13 09:10:53;;;;;;;4.15;1.30;;;;;;;;;;5057523;27;98444;-81
2023/03/13 09:13:19;;;;;;;3.92;1.25;;;;;;;;;;5077774;27;98328;-80
2023/03/13 09:15:52;;;;;;;5.15;1.45;;;;;;;;;;5081377;27;99010;-80
2023/03/13 09:18:19;;;;;;;5.05;1.33;;;;;;;;;;5080511;27;98446;-80
2023/03/13 09:20:46;;;;;;;3.92;1.38;;;;;;;;;;5058152;27;100148;-80
2023/03/13 09:23:14;;;;;;;4.90;1.30;;;;;;;;;;5077159;27;98194;-80
2023/03/13 09:25:40;;;;;;;3.20;1.33;;;;;;;;;;5058680;27;101434;-80
2023/03/13 09:28:07;;;;;;;3.65;1.33;;;;;;;;;;5047368;27;102258;-81
2023/03/13 09:30:33;;;;;;;6.22;1.63;;;;;;;;;;5079594;27;98133;-80
2023/03/13 09:33:00;;;;;;;3.33;1.30;;;;;;;;;;5058612;27;100940;-80
2023/03/13 09:35:26;;;;;;;5.18;1.40;;;;;;;;;;5057692;27;99309;-79
2023/03/13 09:37:53;;;;;;;3.75;1.20;;;;;;;;;;5061548;27;98259;-81
2023/03/13 09:40:21;;;;;;;4.32;1.20;;;;;;;;;;5057668;27;101709;-83
2023/03/13 09:42:49;;;;;;;3.88;1.30;;;;;;;;;;5076185;27;98292;-81
2023/03/13 09:45:24;;;;;;;4.18;1.27;;;;;;;;;;5058215;27;99494;-81
2023/03/13 09:47:56;;;;;;;4.43;1.30;;;;;;;;;;5040544;27;100956;-81
2023/03/13 09:50:28;;;;;;;4.60;1.45;;;;;;;;;;5075819;27;98682;-78
2023/03/13 09:52:58;;;;;;;4.57;1.23;;;;;;;;;;5075381;27;99762;-78
2023/03/13 09:55:29;;;;;;;3.92;1.27;;;;;;;;;;5077646;27;98979;-78
2023/03/13 09:58:01;;;;;;;4.70;1.40;;;;;;;;;;5074261;27;99573;-78
2023/03/13 10:00:54;;;;;;;3.85;1.40;;;;;;;;;;5058213;27;99370;-79
2023/03/13 10:03:22;;;;;;;3.70;1.50;;;;;;;;;;5067982;27;98392;-79
2023/03/13 10:05:50;;;;;;;3.50;1.38;;;;;;;;;;5074080;27;99697;-77
2023/03/13 10:08:18;;;;;;;5.00;1.65;;;;;;;;;;5074130;27;98791;-78
2023/03/13 10:10:54;;;;;;;4.43;1.60;;;;;;;;;;5073396;27;97450;-78
2023/03/13 10:13:43;;;;;;;5.55;1.60;;;;;;;;;;5075121;27;98338;-79
2023/03/13 10:16:21;;;;;;;3.78;1.50;;;;;;;;;;5044278;27;99659;-77
2023/03/13 10:18:51;;;;;;;5.40;1.45;;;;;;;;;;5071938;27;98831;-79
2023/03/13 10:21:23;;;;;;;4.32;1.45;;;;;;;;;;5057062;27;99425;-79
2023/03/13 10:23:53;;;;;;;3.55;1.40;;;;;;;;;;5041055;27;100664;-78
2023/03/13 10:26:22;;;;;;;3.95;1.48;;;;;;;;;;5056497;27;98452;-79
2023/03/13 10:28:49;;;;;;;3.80;1.33;;;;;;;;;;5055181;27;101598;-78
2023/03/13 10:31:25;;;;;;;4.93;1.50;;;;;;;;;;5081381;27;98596;-78
2023/03/13 10:33:52;;;;;;;4.00;1.52;;;;;;;;;;5076237;27;99913;-79
2023/03/13 10:36:18;;;;;;;5.43;1.40;;;;;;;;;;5039638;27;99977;-79
2023/03/13 10:38:45;;;;;;;4.00;1.60;;;;;;;;;;5075405;27;98210;-79
2023/03/13 10:41:20;;;;;;;4.35;1.35;;;;;;;;;;5055283;27;99739;-78
2023/03/13 10:43:51;;;;;;;5.65;1.20;;;;;;;;;;5066808;27;100294;-78
2023/03/13 10:46:25;;;;;;;4.20;1.42;;;;;;;;;;5072126;27;98504;-79
2023/03/13 10:48:53;;;;;;;4.25;1.30;;;;;;;;;;5073818;27;98729;-78
2023/03/13 10:51:21;;;;;;;4.82;1.42;;;;;;;;;;5056240;27;99001;-79
2023/03/13 10:53:48;;;;;;;5.43;1.40;;;;;;;;;;5055946;27;100566;-79
2023/03/13 10:56:18;;;;;;;4.13;1.40;;;;;;;;;;5074463;27;99476;-79
2023/03/13 10:58:48;;;;;;;3.80;1.27;;;;;;;;;;5073318;27;98577;-78
2023/03/13 11:01:22;;;;;;;4.50;1.30;;;;;;;;;;5076718;27;98696;-83
2023/03/13 11:03:50;;;;;;;5.55;1.20;;;;;;;;;;5057009;27;100862;-79
2023/03/13 11:06:24;;;;;;;4.45;1.30;;;;;;;;;;5075310;27;98659;-79
2023/03/13 11:08:57;;;;;;;4.20;1.40;;;;;;;;;;5047055;27;100874;-79
2023/03/13 11:11:29;;;;;;;4.78;1.50;;;;;;;;;;5075436;27;98713;-79
2023/03/13 11:14:16;;;;;;;5.68;1.40;;;;;;;;;;5057334;27;99523;-80
2023/03/13 11:16:48;;;;;;;3.03;1.35;;;;;;;;;;5085929;27;99107;-79
2023/03/13 11:19:14;;;;;;;3.97;1.10;;;;;;;;;;5075220;27;98517;-78
2023/03/13 11:21:59;;;;;;;5.75;1.40;;;;;;;;;;5056947;27;99080;-78
2023/03/13 11:24:33;;;;;;;3.40;1.20;;;;;;;;;;5075480;27;99933;-79
2023/03/13 11:27:06;;;;;;;3.88;1.30;;;;;;;;;;5071130;27;98248;-79
2023/03/13 11:29:36;;;;;;;3.78;1.27;;;;;;;;;;5079172;27;99230;-80
2023/03/13 11:32:09;;;;;;;3.30;1.20;;;;;;;;;;5067159;27;99608;-79
2023/03/13 11:34:49;;;;;;;4.95;1.30;;;;;;;;;;5059091;27;100835;-79
2023/03/13 11:37:18;;;;;;;3.22;1.23;;;;;;;;;;5059606;27;98956;-79
2023/03/13 11:39:53;;;;;;;5.32;1.30;;;;;;;;;;5072521;27;98222;-79
2023/03/13 11:42:35;;;;;;;3.05;1.10;;;;;;;;;;5078847;27;99463;-79
2023/03/13 11:45:20;;;;;;;4.60;1.27;;;;;;;;;;5077156;27;104918;-79
2023/03/13 11:47:46;;;;;;;;;;;;;;;;;;5043554;27;98453;-80
2023/03/13 11:50:20;;;;;;;4.10;1.10;;;;;;;;;;5078745;27;100581;-78
2023/03/13 11:52:49;;;;;;;3.53;1.23;;;;;;;;;;5081519;27;98178;-78
2023/03/13 11:55:34;;;;;;;5.95;1.30;;;;;;;;;;5076436;27;98739;-79
2023/03/13 11:58:11;;;;;;;3.03;1.20;;;;;;;;;;5059750;27;98788;-78
2023/03/13 12:00:46;;;;;;;3.50;1.10;;;;;;;;;;5058222;27;99484;-79
2023/03/13 12:03:30;;;;;;;3.80;1.20;;;;;;;;;;5078980;27;99108;-80
2023/03/13 12:05:58;;;;;;;4.85;1.20;;;;;;;;;;5059594;27;101169;-77
2023/03/13 12:08:45;;;;;;;2.85;1.10;;;;;;;;;;5078793;27;98134;-78
2023/03/13 12:11:20;;;;;;;2.22;1.10;;;;;;;;;;5059526;27;103521;-77
2023/03/13 12:13:50;;;;;;;4.43;1.38;;;;;;;;;;5079183;27;98833;-77
2023/03/13 12:16:22;;;;;;;3.58;1.20;;;;;;;;;;5090013;27;98242;-76
2023/03/13 12:18:50;;;;;;;3.53;1.20;;;;;;;;;;5071028;27;97867;-77
2023/03/13 12:21:30;;;;;;;4.05;1.30;;;;;;;;;;5078162;27;98382;-77
2023/03/13 12:24:00;;;;;;;4.18;1.30;;;;;;;;;;5078520;27;99705;-77
2023/03/13 12:26:46;;;;;;;5.65;1.40;;;;;;;;;;5058971;27;100081;-78
2023/03/13 12:29:13;;;;;;;5.60;1.30;;;;;;;;;;5058936;27;98708;-79
2023/03/13 12:31:42;;;;;;;4.10;1.38;;;;;;;;;;5081635;27;98399;-79
2023/03/13 12:34:15;;;;;;;5.05;1.42;;;;;;;;;;5028844;27;101838;-77
2023/03/13 12:36:41;;;;;;;3.95;1.30;;;;;;;;;;5070957;27;98186;-78
2023/03/13 12:39:20;;;;;;;7.03;1.65;;;;;;;;;;5061776;27;99471;-79
2023/03/13 12:41:59;;;;;;;3.95;1.10;;;;;;;;;;5077792;27;98592;-78
2023/03/13 12:44:26;;;;;;;4.05;1.20;;;;;;;;;;5078623;27;98853;-78
2023/03/13 12:47:00;;;;;;;17.45;1.90;;;;;;;;;;5076079;27;98615;-78
2023/03/13 12:49:29;;;;;;;5.53;1.30;;;;;;;;;;5077429;27;98319;-81
2023/03/13 12:51:56;;;;;;;5.72;1.33;;;;;;;;;;5059722;27;99454;-79
2023/03/13 12:54:38;;;;;;;8.07;1.30;;;;;;;;;;5047100;27;100792;-79
2023/03/13 12:57:20;;;;;;;6.10;1.50;;;;;;;;;;5073319;27;98258;-79
2023/03/13 12:59:48;;;;;;;6.55;1.35;;;;;;;;;;5077913;27;98759;-79
2023/03/13 13:02:22;;;;;;;6.05;1.67;;;;;;;;;;5045606;27;101446;-79
2023/03/13 13:04:50;;;;;;;7.32;1.38;;;;;;;;;;5065489;27;98405;-79
2023/03/13 13:07:19;;;;;;;6.35;1.30;;;;;;;;;;5058715;27;99233;-78
2023/03/13 13:10:01;;;;;;;5.53;1.40;;;;;;;;;;5077430;27;97934;-78
2023/03/13 13:12:28;;;;;;;6.43;1.42;;;;;;;;;;5077726;27;98047;-78
2023/03/13 13:14:57;;;;;;;7.95;1.48;;;;;;;;;;5080064;27;103044;-78
2023/03/13 13:17:39;;;;;;;7.18;1.35;;;;;;;;;;5080469;27;99066;-78
2023/03/13 13:20:24;;;;;;;7.50;1.60;;;;;;;;;;5032229;27;102052;-79
2023/03/13 13:22:50;;;;;;;5.88;1.40;;;;;;;;;;5058460;27;99185;-79
2023/03/13 13:25:26;;;;;;;4.88;1.20;;;;;;;;;;5061910;27;98405;-79
2023/03/13 13:27:53;;;;;;;5.63;1.30;;;;;;;;;;5041809;27;100986;-79
2023/03/13 13:30:19;;;;;;;4.07;1.25;;;;;;;;;;5080339;27;98562;-79
2023/03/13 13:32:47;;;;;;;4.55;1.35;;;;;;;;;;5079547;27;99896;-79
2023/03/13 13:35:17;;;;;;;7.13;1.20;;;;;;;;;;5075946;27;97910;-79
2023/03/13 13:37:43;;;;;;;8.38;1.45;;;;;;;;;;5072562;27;98769;-78
2023/03/13 13:40:16;;;;;;;5.75;1.40;;;;;;;;;;5075926;27;100722;-77
2023/03/13 13:42:46;;;;;;;7.28;1.80;;;;;;;;;;5075961;27;100047;-75
2023/03/13 13:45:16;;;;;;;6.53;1.52;;;;;;;;;;5076028;27;98195;-76
2023/03/13 13:47:46;;;;;;;6.57;1.40;;;;;;;;;;5079947;27;98547;-75
2023/03/13 13:50:16;;;;;;;6.25;1.20;;;;;;;;;;5075353;27;98246;-75
2023/03/13 13:52:42;;;;;;;6.93;1.48;;;;;;;;;;5076591;27;99173;-75
2023/03/13 13:55:29;;;;;;;3.75;1.38;;;;;;;;;;5056884;27;100091;-76
2023/03/13 13:58:11;;;;;;;3.53;1.20;;;;;;;;;;5047285;27;98766;-76
2023/03/13 14:00:41;;;;;;;5.70;1.48;;;;;;;;;;5069971;27;98833;-77
2023/03/13 14:03:22;;;;;;;5.78;1.50;;;;;;;;;;5058232;27;99171;-76
2023/03/13 14:05:50;;;;;;;5.78;1.52;;;;;;;;;;5076810;27;98110;-76
2023/03/13 14:08:19;;;;;;;5.43;1.50;;;;;;;;;;5079430;27;99174;-77
2023/03/13 14:11:18;;;;;;;6.88;1.50;;;;;;;;;;5074994;27;98214;-77
2023/03/13 14:14:04;;;;;;;6.57;1.50;;;;;;;;;;5014731;27;99314;-76
2023/03/13 14:16:32;;;;;;;7.53;1.55;;;;;;;;;;5079635;27;99424;-76
2023/03/13 14:18:58;;;;;;;5.60;1.40;;;;;;;;;;5058323;27;98385;-76
2023/03/13 14:21:26;;;;;;;5.82;1.40;;;;;;;;;;5076318;27;100091;-76
2023/03/13 14:23:52;;;;;;;6.72;1.60;;;;;;;;;;5075616;27;98639;-75
2023/03/13 14:26:21;;;;;;;6.97;1.60;;;;;;;;;;5076857;27;97394;-75
2023/03/13 14:28:55;;;;;;;7.03;1.40;;;;;;;;;;5072850;27;98485;-76
2023/03/13 14:31:22;;;;;;;5.07;1.50;;;;;;;;;;5072867;27;98990;-76
2023/03/13 14:33:49;;;;;;;7.72;1.40;;;;;;;;;;5054694;27;98917;-77
2023/03/13 14:36:16;;;;;;;5.40;1.25;;;;;;;;;;5063672;27;98746;-76
2023/03/13 14:38:55;;;;;;;5.18;1.38;;;;;;;;;;5055036;27;98253;-74
2023/03/13 14:41:35;;;;;;;7.85;1.60;;;;;;;;;;5055966;27;99797;-75
2023/03/13 14:44:01;;;;;;;;;;;;;;;;;;5072291;27;99330;-75
2023/03/13 14:46:32;;;;;;;4.97;1.35;;;;;;;;;;5070763;27;108266;-76
2023/03/13 14:49:14;;;;;;;5.20;1.50;;;;;;;;;;5070155;27;103095;-76
2023/03/13 14:51:40;;;;;;;7.75;1.40;;;;;;;;;;5071261;27;99206;-75
2023/03/13 14:54:24;;;;;;;6.20;1.30;;;;;;;;;;5059166;27;98321;-76
2023/03/13 14:57:01;;;;;;;6.05;1.50;;;;;;;;;;5070471;27;99330;-77
2023/03/13 14:59:27;;;;;;;7.82;1.70;;;;;;;;;;5068522;27;99060;-77
2023/03/13 15:02:03;;;;;;;5.45;1.50;;;;;;;;;;5068295;27;99461;-76
2023/03/13 15:04:47;;;;;;;6.47;1.60;;;;;;;;;;5070355;27;99126;-78